createdAt,value
2022-10-01T00:02:44.082Z,26.90
2022-10-01T00:07:47.485Z,27.20
2022-10-01T00:12:50.303Z,24.70
2022-10-01T00:17:53.881Z,29.30
2022-10-01T00:22:56.676Z,26.40
2022-10-01T00:28:00.078Z,25.70
2022-10-01T00:33:02.960Z,27.30
2022-10-01T00:38:07.452Z,24.50
2022-10-01T00:43:21.234Z,27.30
2022-10-01T00:48:27.072Z,24.00
2022-10-01T00:53:33.090Z,25.20
2022-10-01T00:58:36.200Z,27.30
2022-10-01T01:03:39.087Z,24.50
2022-10-01T01:08:42.979Z,24.20
2022-10-01T01:14:02.012Z,25.30
2022-10-01T01:19:14.997Z,25.70
2022-10-01T01:24:33.666Z,24.30
2022-10-01T01:29:53.144Z,26.70
2022-10-01T01:35:02.794Z,24.90
2022-10-01T01:40:11.153Z,24.70
2022-10-01T01:45:20.415Z,26.50
2022-10-01T01:50:29.126Z,30.50
2022-10-01T01:55:34.519Z,26.50
2022-10-01T02:00:37.715Z,27.30
2022-10-01T02:06:04.369Z,27.20
2022-10-01T02:16:50.487Z,26.30
2022-10-01T02:22:02.411Z,27.80
2022-10-01T02:27:13.713Z,25.50
2022-10-01T02:32:18.435Z,23.80
2022-10-01T02:37:25.589Z,28.30
2022-10-01T02:42:31.184Z,25.10
2022-10-01T02:47:39.705Z,27.30
2022-10-01T02:53:07.267Z,24.00
2022-10-01T02:58:10.058Z,25.70
2022-10-01T03:03:12.981Z,25.50
2022-10-01T03:08:15.824Z,28.80
2022-10-01T03:13:22.027Z,28.90
2022-10-01T03:18:24.843Z,38.50
2022-10-01T03:23:27.651Z,37.80
2022-10-01T03:28:30.464Z,32.70
2022-10-01T03:33:33.691Z,31.10
2022-10-01T03:38:36.455Z,27.70
2022-10-01T03:43:39.172Z,50.20
2022-10-01T03:48:41.868Z,33.30
2022-10-01T03:53:44.597Z,39.10
2022-10-01T03:58:47.314Z,30.50
2022-10-01T04:03:50.459Z,27.30
2022-10-01T04:08:53.263Z,28.60
2022-10-01T04:13:58.060Z,30.30
2022-10-01T04:19:00.951Z,29.10
2022-10-01T04:24:05.695Z,26.80
2022-10-01T04:29:08.663Z,33.00
2022-10-01T04:34:11.397Z,27.00
2022-10-01T04:39:14.137Z,29.40
2022-10-01T04:44:16.946Z,36.90
2022-10-01T04:49:19.704Z,32.00
2022-10-01T04:54:22.471Z,30.30
2022-10-01T04:59:26.680Z,39.70
2022-10-01T05:04:29.421Z,34.60
2022-10-01T05:09:32.303Z,31.70
2022-10-01T05:14:36.186Z,35.40
2022-10-01T05:19:38.956Z,32.10
2022-10-01T05:24:43.444Z,35.60
2022-10-01T05:29:46.978Z,39.50
2022-10-01T05:34:53.467Z,40.70
2022-10-01T05:39:56.613Z,36.30
2022-10-01T05:44:59.329Z,43.80
2022-10-01T05:50:02.133Z,36.10
2022-10-01T05:55:05.276Z,40.60
2022-10-01T06:00:08.830Z,40.80
2022-10-01T06:05:11.652Z,40.90
2022-10-01T06:10:15.775Z,33.40
2022-10-01T06:15:18.981Z,36.90
2022-10-01T06:20:21.712Z,33.30
2022-10-01T06:25:26.086Z,33.50
2022-10-01T06:30:32.050Z,29.90
2022-10-01T06:35:36.756Z,26.60
2022-10-01T06:40:42.119Z,30.00
2022-10-01T06:45:44.972Z,25.40
2022-10-01T06:50:49.848Z,27.30
2022-10-01T06:55:52.656Z,26.70
2022-10-01T07:01:02.190Z,23.90
2022-10-01T07:06:08.079Z,22.50
2022-10-01T07:11:10.897Z,22.30
2022-10-01T07:16:13.782Z,25.10
2022-10-01T07:21:16.603Z,21.40
2022-10-01T07:26:19.349Z,18.40
2022-10-01T07:31:22.284Z,22.00
2022-10-01T07:36:25.469Z,20.30
2022-10-01T07:41:28.292Z,17.70
2022-10-01T07:46:34.580Z,17.20
2022-10-01T07:51:38.047Z,14.30
2022-10-01T07:56:41.742Z,13.70
2022-10-01T08:01:44.651Z,12.70
2022-10-01T08:06:49.122Z,9.70
2022-10-01T08:11:51.921Z,11.10
2022-10-01T08:16:55.950Z,10.50
2022-10-01T08:21:58.768Z,11.60
2022-10-01T08:27:01.870Z,11.10
2022-10-01T08:32:04.739Z,10.60
2022-10-01T08:37:07.638Z,10.40
2022-10-01T08:42:33.491Z,10.80
2022-10-01T08:47:41.292Z,10.40
2022-10-01T08:52:57.469Z,9.20
2022-10-01T08:58:06.973Z,11.40
2022-10-01T09:03:15.018Z,9.30
2022-10-01T09:08:24.208Z,7.40
2022-10-01T09:13:59.849Z,9.80
2022-10-01T09:19:17.849Z,7.00
2022-10-01T09:24:29.623Z,10.90
2022-10-01T09:30:07.105Z,9.40
2022-10-01T09:35:37.275Z,10.80
2022-10-01T09:40:53.536Z,10.10
2022-10-01T09:45:56.791Z,9.00
2022-10-01T09:51:08.791Z,12.90
2022-10-01T09:56:19.243Z,10.10
2022-10-01T10:01:44.079Z,9.90
2022-10-01T10:06:48.272Z,7.70
2022-10-01T10:11:51.724Z,9.10
2022-10-01T10:16:56.771Z,9.40
2022-10-01T10:22:12.790Z,8.20
2022-10-01T10:27:29.282Z,8.50
2022-10-01T10:32:33.098Z,8.60
2022-10-01T10:37:39.141Z,8.80
2022-10-01T10:42:49.084Z,8.50
2022-10-01T10:47:53.852Z,8.50
2022-10-01T10:52:57.850Z,8.20
2022-10-01T10:58:12.038Z,7.30
2022-10-01T11:03:18.101Z,10.80
2022-10-01T11:08:27.956Z,7.80
2022-10-01T11:14:09.640Z,8.50
2022-10-01T11:19:34.314Z,9.70
2022-10-01T11:24:37.101Z,8.80
2022-10-01T11:29:54.097Z,9.80
2022-10-01T11:35:12.123Z,9.70
2022-10-01T11:40:25.272Z,12.30
2022-10-01T11:45:32.187Z,9.30
2022-10-01T11:50:49.205Z,8.40
2022-10-01T11:56:44.278Z,8.50
2022-10-01T12:02:15.321Z,9.10
2022-10-01T12:07:52.692Z,8.30
2022-10-01T12:13:10.484Z,14.20
2022-10-01T12:18:22.414Z,8.80
2022-10-01T12:23:30.270Z,10.00
2022-10-01T12:28:53.623Z,9.20
2022-10-01T12:34:22.603Z,10.50
2022-10-01T12:44:53.988Z,13.20
2022-10-01T12:50:12.404Z,11.50
2022-10-01T12:55:34.462Z,10.10
2022-10-01T13:01:07.077Z,11.10
2022-10-01T13:06:44.405Z,9.70
2022-10-01T13:12:16.480Z,11.20
2022-10-01T13:17:42.698Z,9.60
2022-10-01T13:23:00.980Z,11.60
2022-10-01T13:28:23.433Z,9.80
2022-10-01T13:33:29.214Z,10.50
2022-10-01T13:38:38.159Z,9.80
2022-10-01T13:43:57.080Z,10.60
2022-10-01T13:49:18.955Z,11.70
2022-10-01T13:54:44.255Z,13.10
2022-10-01T13:59:59.300Z,11.20
2022-10-01T14:05:27.004Z,26.00
2022-10-01T14:10:58.459Z,13.90
2022-10-01T14:16:03.439Z,11.00
2022-10-01T14:21:28.748Z,7.60
2022-10-01T14:26:40.006Z,9.10
2022-10-01T14:32:07.343Z,10.30
2022-10-01T14:37:17.324Z,10.30
2022-10-01T14:42:20.398Z,10.20
2022-10-01T14:47:28.089Z,8.90
2022-10-01T14:52:35.694Z,13.00
2022-10-01T14:57:42.801Z,21.50
2022-10-01T15:03:16.200Z,14.80
2022-10-01T15:08:37.125Z,12.10
2022-10-01T15:13:43.198Z,21.20
2022-10-01T15:18:50.245Z,34.00
2022-10-01T15:23:53.906Z,28.20
2022-10-01T15:29:07.526Z,24.00
2022-10-01T15:34:14.304Z,23.20
2022-10-01T15:39:46.266Z,24.10
2022-10-01T15:44:50.324Z,32.00
2022-10-01T15:50:23.891Z,23.70
2022-10-01T15:55:26.631Z,18.10
2022-10-01T16:00:32.297Z,17.00
2022-10-01T16:05:46.576Z,22.60
2022-10-01T16:11:20.375Z,27.20
2022-10-01T16:16:24.767Z,21.70
2022-10-01T16:21:27.818Z,20.70
2022-10-01T16:26:37.810Z,22.30
2022-10-01T16:31:45.849Z,20.40
2022-10-01T16:42:11.934Z,21.80
2022-10-01T16:47:17.442Z,23.30
2022-10-01T16:52:21.522Z,24.20
2022-10-01T16:57:24.314Z,25.70
2022-10-01T17:02:27.062Z,43.30
2022-10-01T17:07:29.885Z,33.80
2022-10-01T17:12:32.681Z,41.80
2022-10-01T17:17:35.486Z,18.80
2022-10-01T17:22:44.789Z,27.60
2022-10-01T17:27:47.706Z,22.90
2022-10-01T17:32:51.357Z,24.50
2022-10-01T17:37:54.350Z,48.40
2022-10-01T17:42:57.128Z,17.30
2022-10-01T17:48:01.823Z,20.60
2022-10-01T17:53:04.606Z,22.40
2022-10-01T17:58:09.463Z,20.10
2022-10-01T18:03:12.326Z,21.30
2022-10-01T18:08:15.090Z,31.90
2022-10-01T18:13:18.334Z,23.10
2022-10-01T18:23:44.976Z,29.70
2022-10-01T18:28:48.211Z,23.00
2022-10-01T18:33:56.898Z,24.20
2022-10-01T18:39:15.403Z,21.80
2022-10-01T18:44:20.673Z,20.70
2022-10-01T18:49:43.575Z,24.90
2022-10-01T18:54:54.092Z,18.20
2022-10-01T19:00:15.703Z,19.10
2022-10-01T19:05:36.812Z,25.00
2022-10-01T19:10:45.676Z,23.70
2022-10-01T19:16:03.795Z,17.60
2022-10-01T19:21:20.929Z,19.90
2022-10-01T19:26:50.016Z,20.80
2022-10-01T19:32:03.068Z,19.90
2022-10-01T19:37:15.512Z,25.30
2022-10-01T19:42:25.638Z,23.50
2022-10-01T19:47:44.215Z,23.00
2022-10-01T19:52:51.529Z,22.20
2022-10-01T19:57:57.176Z,25.90
2022-10-01T20:03:11.371Z,21.10
2022-10-01T20:08:29.028Z,21.20
2022-10-01T20:13:34.438Z,18.70
2022-10-01T20:18:42.790Z,21.40
2022-10-01T20:23:49.551Z,20.90
2022-10-01T20:34:22.011Z,22.20
2022-10-01T20:39:35.915Z,19.80
2022-10-01T20:44:39.428Z,20.40
2022-10-01T20:49:46.597Z,19.80
2022-10-01T20:54:59.318Z,25.70
2022-10-01T21:00:07.983Z,22.40
2022-10-01T21:05:28.003Z,18.70
2022-10-01T21:10:46.712Z,18.90
2022-10-01T21:16:01.642Z,17.00
2022-10-01T21:21:15.993Z,17.80
2022-10-01T21:26:49.384Z,17.10
2022-10-01T21:32:12.831Z,10.50
2022-10-01T21:37:27.630Z,8.00
2022-10-01T21:42:47.929Z,7.80
2022-10-01T21:47:50.616Z,9.60
2022-10-01T21:53:20.428Z,8.20
2022-10-01T21:58:52.221Z,9.70
2022-10-01T22:04:10.606Z,8.50
2022-10-01T22:09:26.825Z,8.60
2022-10-01T22:14:30.241Z,9.00
2022-10-01T22:19:37.685Z,7.30
2022-10-01T22:24:49.858Z,7.20
2022-10-01T22:30:05.525Z,8.10
2022-10-01T22:35:17.304Z,7.80
2022-10-01T22:40:27.198Z,7.60
2022-10-01T22:46:03.520Z,5.70
2022-10-01T22:51:36.961Z,7.20
2022-10-01T22:57:03.331Z,7.90
2022-10-01T23:02:17.445Z,7.00
2022-10-01T23:07:55.379Z,7.40
2022-10-01T23:13:24.715Z,7.90
2022-10-01T23:18:42.658Z,7.00
2022-10-01T23:24:09.136Z,7.80
2022-10-01T23:29:47.240Z,8.20
2022-10-01T23:35:22.467Z,9.00
2022-10-01T23:40:33.178Z,9.40
2022-10-01T23:46:11.417Z,8.90
2022-10-01T23:51:37.599Z,9.80
2022-10-01T23:57:00.159Z,10.40
